Time;durP1;ratioP1;P1;durP2;ratioP2;P2;SDS_P1;SDS_P2;PMS_P1;PMS_P2;Temp;Humidity;BMP_temperature;BMP_pressure;BME280_temperature;BME280_humidity;BME280_pressure;Samples;Min_cycle;Max_cycle;Signal;HPM_P1;HPM_P2
2024/01/08 00:01:31;;;;;;;0.60;0.60;;;;;;;1.51;87.29;102346.28;5009567;28;20079;-77
2024/01/08 00:03:57;;;;;;;0.68;0.57;;;;;;;1.53;86.74;102354.78;5027331;28;20080;-77
2024/01/08 00:06:23;;;;;;;0.77;0.47;;;;;;;1.56;86.83;102351.66;5011282;28;20429;-78
2024/01/08 00:08:49;;;;;;;0.63;0.63;;;;;;;1.60;87.13;102355.41;5028405;28;20438;-79
2024/01/08 00:11:14;;;;;;;0.85;0.82;;;;;;;1.68;86.08;102359.44;5020953;28;20093;-78
2024/01/08 00:13:40;;;;;;;0.40;0.40;;;;;;;1.56;86.49;102342.88;5010824;28;20083;-78
2024/01/08 00:16:06;;;;;;;0.75;0.75;;;;;;;1.45;86.60;102354.47;5013467;28;20037;-78
2024/01/08 00:18:31;;;;;;;0.57;0.57;;;;;;;1.44;86.89;102345.69;5008905;28;20029;-77
2024/01/08 00:20:59;;;;;;;0.60;0.60;;;;;;;1.35;87.38;102349.06;5023182;28;20490;-77
2024/01/08 00:23:25;;;;;;;0.70;0.60;;;;;;;1.38;86.92;102354.66;5012154;28;20037;-78
2024/01/08 00:25:52;;;;;;;0.98;0.98;;;;;;;1.38;86.94;102356.50;5016471;28;20552;-77
2024/01/08 00:28:17;;;;;;;0.60;0.60;;;;;;;1.23;87.83;102356.34;5026854;28;20022;-77
2024/01/08 00:30:43;;;;;;;0.68;0.68;;;;;;;1.39;87.47;102358.13;5026963;28;20092;-77
2024/01/08 00:33:09;;;;;;;0.45;0.45;;;;;;;1.45;86.77;102365.84;5029756;28;20047;-77
2024/01/08 00:35:35;;;;;;;0.50;0.50;;;;;;;1.37;87.06;102366.34;5030933;28;20030;-77
2024/01/08 00:38:00;;;;;;;0.43;0.43;;;;;;;1.38;86.61;102367.94;5040346;28;20103;-77
2024/01/08 00:40:27;;;;;;;0.50;0.50;;;;;;;1.43;86.73;102373.28;5026965;28;20406;-77
2024/01/08 00:42:52;;;;;;;0.55;0.55;;;;;;;1.33;86.90;102373.19;5025280;28;20120;-77
2024/01/08 00:45:18;;;;;;;0.98;0.98;;;;;;;1.41;86.68;102375.41;5010249;28;20359;-77
2024/01/08 00:47:43;;;;;;;0.50;0.50;;;;;;;1.37;86.24;102379.59;5028494;28;20049;-78
2024/01/08 00:50:10;;;;;;;0.60;0.60;;;;;;;1.40;86.23;102376.44;5011047;28;20040;-77
2024/01/08 00:52:38;;;;;;;1.33;0.75;;;;;;;1.42;86.53;102378.84;5011379;28;20033;-77
2024/01/08 00:55:04;;;;;;;0.57;0.57;;;;;;;1.40;86.24;102373.78;5023740;28;20040;-77
2024/01/08 00:57:31;;;;;;;2.10;0.65;;;;;;;1.43;86.27;102380.44;5029294;28;20041;-77
2024/01/08 00:59:56;;;;;;;4.95;1.08;;;;;;;1.18;85.93;102373.00;5027321;28;20037;-77
2024/01/08 01:02:22;;;;;;;0.80;0.80;;;;;;;1.36;86.35;102383.28;5018435;28;20531;-77
2024/01/08 01:04:49;;;;;;;0.95;0.38;;;;;;;1.36;86.50;102379.84;5012037;28;20453;-77
2024/01/08 01:07:14;;;;;;;1.65;1.00;;;;;;;1.41;86.30;102371.94;5008329;28;20467;-77
2024/01/08 01:09:42;;;;;;;0.50;0.50;;;;;;;1.46;86.33;102380.75;5023030;28;20117;-77
2024/01/08 01:12:09;;;;;;;1.17;1.10;;;;;;;1.41;85.88;102382.56;5022313;28;20034;-77
2024/01/08 01:14:35;;;;;;;0.85;0.82;;;;;;;1.26;86.35;102387.72;5023936;28;20044;-77
2024/01/08 01:17:00;;;;;;;1.10;1.02;;;;;;;1.33;86.54;102390.97;5023264;28;20030;-76
2024/01/08 01:19:26;;;;;;;0.70;0.70;;;;;;;1.29;86.95;102385.34;5023654;28;20037;-76
2024/01/08 01:21:51;;;;;;;0.38;0.38;;;;;;;1.35;86.20;102381.72;5040512;28;20037;-77
2024/01/08 01:24:17;;;;;;;0.50;0.50;;;;;;;1.43;86.29;102394.50;5027622;28;20391;-76
2024/01/08 01:26:42;;;;;;;0.68;0.63;;;;;;;1.37;86.27;102392.88;5025535;28;20037;-77
2024/01/08 01:29:09;;;;;;;0.82;0.70;;;;;;;1.32;86.30;102400.75;5023146;28;20479;-77
2024/01/08 01:31:36;;;;;;;0.35;0.35;;;;;;;1.45;86.36;102396.94;5010657;28;20061;-77
2024/01/08 01:34:03;;;;;;;1.13;0.60;;;;;;;1.43;86.54;102399.81;5012133;28;20076;-77
2024/01/08 01:36:29;;;;;;;0.30;0.30;;;;;;;1.54;85.88;102390.91;5025028;28;20044;-77
2024/01/08 01:38:55;;;;;;;0.47;0.47;;;;;;;1.55;85.45;102397.81;5022384;28;20155;-77
2024/01/08 01:41:20;;;;;;;0.30;0.30;;;;;;;1.49;85.71;102388.19;5024907;28;20120;-77
2024/01/08 01:43:46;;;;;;;0.40;0.40;;;;;;;1.47;86.33;102397.47;5017650;28;20052;-77
2024/01/08 01:46:25;;;;;;;0.55;0.52;;;;;;;1.42;85.99;102408.03;5023072;28;20449;-77
2024/01/08 01:48:51;;;;;;;0.40;0.40;;;;;;;1.45;85.92;102397.69;5027063;28;20498;-77
2024/01/08 01:51:16;;;;;;;0.47;0.47;;;;;;;1.44;86.38;102401.41;5023302;28;20059;-77
2024/01/08 01:53:42;;;;;;;0.57;0.57;;;;;;;1.47;86.19;102402.78;5026961;28;20037;-79
2024/01/08 01:56:08;;;;;;;0.73;0.70;;;;;;;1.36;86.47;102409.81;5025820;28;20045;-77
2024/01/08 01:58:34;;;;;;;0.40;0.40;;;;;;;1.39;86.37;102409.34;5025114;28;20090;-76
2024/01/08 02:01:00;;;;;;;0.73;0.60;;;;;;;1.49;86.63;102419.25;5026120;28;20053;-76
2024/01/08 02:03:26;;;;;;;1.10;0.63;;;;;;;1.42;86.84;102419.44;5026086;28;20044;-77
2024/01/08 02:05:53;;;;;;;2.17;0.90;;;;;;;1.39;87.64;102419.97;5027635;28;20041;-77
2024/01/08 02:08:20;;;;;;;0.88;0.77;;;;;;;1.39;87.39;102414.66;5026564;28;20065;-77
2024/01/08 02:10:46;;;;;;;0.63;0.57;;;;;;;1.43;87.43;102407.75;5020766;28;20538;-78
2024/01/08 02:13:11;;;;;;;0.47;0.47;;;;;;;1.44;86.93;102412.03;5024160;28;20171;-77
2024/01/08 02:15:37;;;;;;;1.23;0.50;;;;;;;1.45;87.06;102410.97;5024195;28;20498;-77
2024/01/08 02:18:02;;;;;;;3.65;0.75;;;;;;;1.46;87.39;102415.25;5022616;28;20114;-76
2024/01/08 02:20:28;;;;;;;0.30;0.30;;;;;;;1.44;87.28;102412.03;5027376;28;20025;-77
2024/01/08 02:22:53;;;;;;;0.80;0.80;;;;;;;1.44;87.87;102404.06;5020243;28;20041;-77
2024/01/08 02:25:19;;;;;;;0.82;0.35;;;;;;;1.48;87.06;102407.84;5025674;28;20056;-77
2024/01/08 02:27:45;;;;;;;1.85;0.88;;;;;;;1.37;87.53;102405.31;5023697;28;20064;-77
2024/01/08 02:30:11;;;;;;;2.28;0.60;;;;;;;1.44;87.55;102395.31;5026757;28;20117;-76
2024/01/08 02:32:36;;;;;;;0.50;0.50;;;;;;;1.42;87.82;102405.38;5025510;28;20507;-77
2024/01/08 02:35:02;;;;;;;0.40;0.40;;;;;;;1.54;87.28;102421.94;5028111;28;20034;-77
2024/01/08 02:37:28;;;;;;;1.23;0.60;;;;;;;1.53;87.51;102412.41;5025616;28;20041;-77
2024/01/08 02:39:53;;;;;;;0.65;0.60;;;;;;;1.50;87.59;102420.84;5007151;28;20422;-77
2024/01/08 02:42:21;;;;;;;1.00;0.93;;;;;;;1.51;87.27;102409.19;5021229;28;20038;-77
2024/01/08 02:44:46;;;;;;;1.98;0.45;;;;;;;1.51;87.46;102430.44;5024557;28;20192;-77
2024/01/08 02:47:12;;;;;;;0.55;0.55;;;;;;;1.56;87.64;102427.81;5023752;28;20124;-77
2024/01/08 02:49:37;;;;;;;0.45;0.40;;;;;;;1.54;87.69;102435.22;5018492;28;20601;-78
2024/01/08 02:52:03;;;;;;;0.40;0.40;;;;;;;1.42;87.79;102435.38;5026613;28;20053;-77
2024/01/08 02:54:28;;;;;;;0.50;0.50;;;;;;;1.59;87.22;102427.28;5013669;28;20052;-77
2024/01/08 02:56:54;;;;;;;1.27;0.82;;;;;;;1.60;87.19;102434.22;5025822;28;20117;-78
2024/01/08 02:59:19;;;;;;;0.50;0.50;;;;;;;1.57;86.90;102437.34;5012984;28;20069;-77
2024/01/08 03:01:45;;;;;;;0.43;0.43;;;;;;;1.62;86.72;102438.25;5025747;28;20037;-77
2024/01/08 03:04:11;;;;;;;1.20;1.10;;;;;;;1.62;86.64;102430.28;5028770;28;20037;-78
2024/01/08 03:06:37;;;;;;;0.50;0.50;;;;;;;1.52;87.02;102439.97;5032879;28;20469;-77
2024/01/08 03:09:02;;;;;;;0.80;0.40;;;;;;;1.56;87.12;102436.59;5027154;28;20061;-77
2024/01/08 03:11:28;;;;;;;0.50;0.50;;;;;;;1.48;86.95;102431.72;5026140;28;20521;-78
2024/01/08 03:13:54;;;;;;;0.40;0.40;;;;;;;1.60;86.98;102436.88;5022735;28;20533;-78
2024/01/08 03:16:19;;;;;;;0.80;0.80;;;;;;;1.52;86.63;102446.09;5011758;28;20026;-78
2024/01/08 03:18:48;;;;;;;0.30;0.30;;;;;;;1.61;86.46;102443.78;5024155;28;20151;-77
2024/01/08 03:21:14;;;;;;;1.10;1.05;;;;;;;1.62;86.13;102451.50;5025124;28;20437;-77
2024/01/08 03:23:42;;;;;;;0.75;0.75;;;;;;;1.48;85.88;102452.13;5026433;28;20170;-77
2024/01/08 03:26:08;;;;;;;0.32;0.32;;;;;;;1.59;86.34;102453.84;5016110;28;20092;-78
2024/01/08 03:28:33;;;;;;;0.65;0.65;;;;;;;1.59;85.73;102452.00;5022078;28;20068;-77
2024/01/08 03:31:00;;;;;;;0.30;0.30;;;;;;;1.58;85.57;102444.28;5017469;28;20086;-78
2024/01/08 03:33:25;;;;;;;0.57;0.57;;;;;;;1.63;85.10;102450.44;5020146;28;20124;-77
2024/01/08 03:35:51;;;;;;;0.88;0.65;;;;;;;1.51;85.11;102452.44;5020052;28;20116;-79
2024/01/08 03:38:18;;;;;;;2.13;1.27;;;;;;;1.48;84.90;102454.78;5005445;28;20410;-78
2024/01/08 03:40:45;;;;;;;1.40;0.90;;;;;;;1.44;85.09;102454.50;5022660;28;20544;-78
2024/01/08 03:43:12;;;;;;;0.68;0.68;;;;;;;1.51;84.14;102454.31;5022636;28;20134;-78
2024/01/08 03:45:39;;;;;;;0.95;0.90;;;;;;;1.52;83.96;102455.91;5020912;28;20025;-78
2024/01/08 03:48:04;;;;;;;0.60;0.60;;;;;;;1.50;82.61;102458.81;5021166;28;20136;-78
2024/01/08 03:50:30;;;;;;;1.15;1.02;;;;;;;1.50;82.78;102456.16;5041166;28;20457;-78
2024/01/08 03:52:55;;;;;;;0.52;0.52;;;;;;;1.41;81.48;102462.97;5025452;28;20021;-78
2024/01/08 03:55:22;;;;;;;0.38;0.38;;;;;;;1.47;82.41;102458.50;5007050;28;20991;-77
2024/01/08 03:57:47;;;;;;;0.30;0.30;;;;;;;1.50;81.45;102463.31;5024304;28;21179;-77
2024/01/08 04:00:13;;;;;;;0.45;0.45;;;;;;;1.32;80.65;102461.78;5028045;28;20195;-77
2024/01/08 04:02:42;;;;;;;1.08;0.52;;;;;;;1.39;79.16;102464.25;5018959;28;20061;-77
2024/01/08 04:05:11;;;;;;;0.70;0.70;;;;;;;1.09;77.84;102459.38;5024102;28;20025;-77
2024/01/08 04:07:37;;;;;;;0.63;0.63;;;;;;;1.17;76.66;102469.56;5013149;28;20506;-77
2024/01/08 04:10:04;;;;;;;0.20;0.20;;;;;;;1.12;76.45;102477.47;5025106;28;20040;-77
2024/01/08 04:12:30;;;;;;;1.08;0.35;;;;;;;1.10;76.28;102468.97;5029393;28;20406;-77
2024/01/08 04:14:55;;;;;;;0.47;0.47;;;;;;;1.27;75.93;102468.88;5030732;28;20023;-77
2024/01/08 04:17:21;;;;;;;0.43;0.43;;;;;;;1.45;74.95;102468.56;5028416;28;20040;-77
2024/01/08 04:19:46;;;;;;;0.20;0.20;;;;;;;1.10;74.03;102473.44;5023629;28;20030;-77
2024/01/08 04:22:12;;;;;;;1.30;0.43;;;;;;;1.36;73.94;102467.38;5030086;28;20037;-77
2024/01/08 04:24:37;;;;;;;0.75;0.52;;;;;;;1.49;73.68;102473.13;5028719;28;20029;-78
2024/01/08 04:27:03;;;;;;;2.55;0.60;;;;;;;1.46;74.81;102478.13;5030375;28;20029;-77
2024/01/08 04:29:29;;;;;;;0.63;0.63;;;;;;;1.49;74.20;102483.72;5040909;28;20429;-77
2024/01/08 04:31:54;;;;;;;1.40;0.85;;;;;;;1.30;74.03;102474.50;5030266;28;20033;-77
2024/01/08 04:34:20;;;;;;;0.35;0.30;;;;;;;1.55;74.16;102472.13;5019047;28;20038;-77
2024/01/08 04:36:45;;;;;;;0.60;0.60;;;;;;;1.59;74.05;102483.84;5027972;28;20037;-77
2024/01/08 04:39:11;;;;;;;0.35;0.35;;;;;;;1.43;74.40;102473.31;5040877;28;20036;-77
2024/01/08 04:41:36;;;;;;;0.30;0.30;;;;;;;1.52;73.58;102483.25;5043609;28;20033;-77
2024/01/08 04:44:02;;;;;;;0.40;0.40;;;;;;;1.45;73.59;102484.50;5036581;28;20121;-77
2024/01/08 04:46:27;;;;;;;0.20;0.20;;;;;;;1.47;73.84;102479.75;5039824;28;20059;-77
2024/01/08 04:48:53;;;;;;;0.50;0.50;;;;;;;1.58;73.72;102482.25;5033002;28;20029;-77
2024/01/08 04:51:22;;;;;;;1.17;0.68;;;;;;;1.65;73.62;102493.47;5011899;28;20033;-77
2024/01/08 04:53:48;;;;;;;1.20;0.35;;;;;;;1.49;73.33;102497.00;5028984;28;20033;-77
2024/01/08 04:56:24;;;;;;;0.20;0.20;;;;;;;1.35;73.40;102497.63;5026572;28;20036;-77
2024/01/08 04:58:52;;;;;;;0.25;0.25;;;;;;;1.43;74.08;102505.16;5025177;28;20102;-77
2024/01/08 05:01:17;;;;;;;1.17;0.77;;;;;;;1.58;73.41;102508.00;5023780;28;20483;-78
2024/01/08 05:03:43;;;;;;;0.30;0.30;;;;;;;1.56;73.14;102510.91;5024879;28;20025;-79
2024/01/08 05:06:18;;;;;;;0.30;0.30;;;;;;;1.62;73.22;102517.88;5008297;28;20091;-77
2024/01/08 05:08:43;;;;;;;0.20;0.20;;;;;;;1.60;72.90;102525.28;5011949;28;20415;-77
2024/01/08 05:11:10;;;;;;;1.92;0.40;;;;;;;1.59;73.54;102518.34;5038605;28;20033;-77
2024/01/08 05:13:38;;;;;;;0.32;0.32;;;;;;;1.58;73.32;102531.88;5026715;28;20549;-79
2024/01/08 05:16:06;;;;;;;1.90;0.82;;;;;;;1.51;73.74;102526.75;5019820;28;20037;-77
2024/01/08 05:18:31;;;;;;;0.50;0.50;;;;;;;1.31;73.30;102528.38;5024137;28;20052;-77
2024/01/08 05:20:57;;;;;;;0.50;0.50;;;;;;;1.40;72.42;102529.53;5027038;28;20487;-76
2024/01/08 05:23:22;;;;;;;0.30;0.30;;;;;;;1.34;73.58;102526.00;5016131;28;20040;-77
2024/01/08 05:25:47;;;;;;;0.38;0.38;;;;;;;1.35;73.65;102532.94;5030683;28;20033;-78
2024/01/08 05:28:13;;;;;;;0.20;0.20;;;;;;;1.32;73.59;102532.59;5022693;28;20034;-79
2024/01/08 05:30:38;;;;;;;0.20;0.20;;;;;;;1.42;74.11;102527.44;5022840;28;20128;-77
2024/01/08 05:33:04;;;;;;;0.57;0.57;;;;;;;1.39;73.71;102538.56;5030450;28;20032;-77
2024/01/08 05:35:29;;;;;;;1.08;1.00;;;;;;;1.35;74.80;102548.84;5025491;28;20045;-77
2024/01/08 05:37:56;;;;;;;0.45;0.45;;;;;;;1.33;74.79;102543.00;5010684;28;20029;-77
2024/01/08 05:40:21;;;;;;;0.32;0.32;;;;;;;1.35;73.98;102540.09;5020257;28;20030;-77
2024/01/08 05:42:47;;;;;;;0.47;0.47;;;;;;;1.38;73.67;102544.88;5023008;28;20413;-77
2024/01/08 05:45:13;;;;;;;0.20;0.20;;;;;;;1.52;74.44;102546.13;5020074;28;20032;-78
2024/01/08 05:47:38;;;;;;;0.40;0.30;;;;;;;1.68;73.43;102546.06;5014701;28;20045;-77
2024/01/08 05:50:04;;;;;;;0.75;0.57;;;;;;;1.73;73.03;102548.78;5010769;28;20069;-78
2024/01/08 05:52:32;;;;;;;0.68;0.68;;;;;;;1.62;73.12;102541.75;5016421;28;20048;-77
2024/01/08 05:54:58;;;;;;;0.17;0.17;;;;;;;1.62;74.38;102546.25;5019168;28;20022;-77
2024/01/08 05:57:24;;;;;;;0.82;0.60;;;;;;;1.61;74.33;102549.94;5017554;28;20043;-77
2024/01/08 05:59:49;;;;;;;1.38;0.65;;;;;;;1.52;73.72;102552.25;5019953;28;20045;-77
2024/01/08 06:02:14;;;;;;;0.75;0.60;;;;;;;1.63;73.88;102547.84;5015354;28;20132;-78
2024/01/08 06:04:40;;;;;;;0.30;0.30;;;;;;;1.67;73.15;102560.41;5012785;28;20025;-78
2024/01/08 06:07:06;;;;;;;0.15;0.15;;;;;;;1.47;73.89;102560.13;5000189;28;20609;-77
2024/01/08 06:09:31;;;;;;;0.50;0.50;;;;;;;1.64;74.23;102558.25;5009464;28;20034;-78
2024/01/08 06:11:58;;;;;;;0.88;0.77;;;;;;;1.54;73.96;102562.63;5010086;28;20098;-78
2024/01/08 06:14:25;;;;;;;0.35;0.35;;;;;;;1.59;74.52;102560.81;5013243;28;20052;-78
2024/01/08 06:16:51;;;;;;;4.10;0.77;;;;;;;1.54;74.65;102566.09;5014926;28;20038;-78
2024/01/08 06:19:16;;;;;;;0.70;0.70;;;;;;;1.72;74.60;102567.63;5014818;28;20041;-78
2024/01/08 06:21:43;;;;;;;0.50;0.28;;;;;;;1.73;74.62;102572.69;5017972;28;20037;-77
2024/01/08 06:24:09;;;;;;;0.20;0.20;;;;;;;1.77;74.48;102573.78;5016434;28;20038;-78
2024/01/08 06:26:34;;;;;;;0.40;0.40;;;;;;;1.58;74.04;102577.81;5016521;28;20708;-77
2024/01/08 06:29:00;;;;;;;0.82;0.68;;;;;;;1.80;72.67;102585.78;5001241;28;20390;-78
2024/01/08 06:31:26;;;;;;;0.40;0.40;;;;;;;1.55;74.31;102591.56;4989455;28;20110;-78
2024/01/08 06:33:52;;;;;;;0.30;0.30;;;;;;;1.63;74.35;102585.81;5022793;28;20076;-77
2024/01/08 06:36:18;;;;;;;0.60;0.60;;;;;;;1.70;74.53;102594.41;5002302;28;20533;-76
2024/01/08 06:38:43;;;;;;;0.50;0.50;;;;;;;1.72;74.70;102592.28;5022094;28;20056;-77
2024/01/08 06:41:09;;;;;;;0.32;0.32;;;;;;;1.73;74.74;102591.25;5013264;28;20112;-76
2024/01/08 06:43:35;;;;;;;0.55;0.55;;;;;;;1.91;73.42;102597.31;5021745;28;20530;-76
2024/01/08 06:46:00;;;;;;;0.77;0.70;;;;;;;1.71;73.42;102590.72;5028195;28;20077;-76
2024/01/08 06:48:26;;;;;;;0.38;0.38;;;;;;;1.65;73.85;102594.34;5035173;28;20036;-76
2024/01/08 06:50:51;;;;;;;0.70;0.60;;;;;;;1.62;74.09;102608.13;5025999;28;20039;-77
2024/01/08 06:53:17;;;;;;;0.50;0.50;;;;;;;1.65;74.54;102599.66;5037032;28;20037;-76
2024/01/08 06:55:42;;;;;;;0.28;0.28;;;;;;;1.61;74.32;102598.53;5032260;28;20400;-77
2024/01/08 06:58:07;;;;;;;1.65;0.43;;;;;;;1.68;74.49;102601.81;5037629;28;20033;-76
2024/01/08 07:00:33;;;;;;;0.93;0.77;;;;;;;1.53;74.53;102609.59;5032743;28;20029;-77
2024/01/08 07:03:00;;;;;;;1.23;1.20;;;;;;;1.65;74.90;102618.25;5037894;28;20049;-77
2024/01/08 07:05:28;;;;;;;0.40;0.40;;;;;;;1.71;75.11;102622.56;5032779;28;20033;-77
2024/01/08 07:07:54;;;;;;;0.40;0.40;;;;;;;1.67;75.35;102628.59;5028160;28;20483;-77
2024/01/08 07:10:22;;;;;;;0.50;0.50;;;;;;;1.67;75.03;102634.72;5037649;28;20040;-77
2024/01/08 07:12:48;;;;;;;0.38;0.38;;;;;;;1.68;75.49;102641.63;5013194;28;20040;-77
2024/01/08 07:15:46;;;;;;;0.57;0.57;;;;;;;1.78;75.34;102646.28;5007371;28;20025;-76
2024/01/08 07:18:12;;;;;;;0.30;0.30;;;;;;;1.76;74.87;102643.84;5031599;28;20560;-76
2024/01/08 07:20:39;;;;;;;0.85;0.85;;;;;;;1.72;74.87;102653.38;5034030;28;20041;-77
2024/01/08 07:23:06;;;;;;;0.47;0.38;;;;;;;1.75;75.03;102650.22;5035403;28;20507;-77
2024/01/08 07:25:34;;;;;;;1.75;0.95;;;;;;;1.63;74.58;102652.19;5034557;28;20026;-77
2024/01/08 07:28:00;;;;;;;0.30;0.30;;;;;;;1.61;75.18;102656.13;5032626;28;20037;-77
2024/01/08 07:30:27;;;;;;;0.40;0.40;;;;;;;1.65;75.57;102659.91;5022616;28;20040;-77
2024/01/08 07:32:52;;;;;;;0.20;0.20;;;;;;;1.55;75.82;102657.91;5035591;28;20022;-77
2024/01/08 07:35:18;;;;;;;0.30;0.30;;;;;;;1.61;75.97;102667.56;5034644;28;20489;-76
2024/01/08 07:37:43;;;;;;;4.75;0.95;;;;;;;1.64;75.58;102659.13;5033183;28;20033;-76
2024/01/08 07:40:09;;;;;;;0.55;0.55;;;;;;;1.65;75.57;102665.22;5025527;28;20060;-77
2024/01/08 07:42:35;;;;;;;0.57;0.57;;;;;;;1.69;75.88;102675.09;5036245;28;20056;-76
2024/01/08 07:45:00;;;;;;;0.38;0.38;;;;;;;1.67;75.97;102679.84;5032412;28;20021;-77
2024/01/08 07:47:27;;;;;;;0.40;0.40;;;;;;;1.45;76.66;102681.66;5019481;28;20566;-76
2024/01/08 07:49:52;;;;;;;7.57;0.70;;;;;;;1.45;76.70;102683.53;5034341;28;20041;-76
2024/01/08 07:52:18;;;;;;;1.13;1.00;;;;;;;1.59;76.14;102684.78;5016493;28;20409;-76
2024/01/08 07:54:43;;;;;;;0.63;0.63;;;;;;;1.67;75.99;102682.50;5027141;28;20065;-76
2024/01/08 07:57:09;;;;;;;0.52;0.52;;;;;;;1.68;76.07;102697.38;5030187;28;20040;-76
2024/01/08 07:59:34;;;;;;;0.50;0.50;;;;;;;1.81;75.52;102707.66;5023434;28;20033;-76
2024/01/08 08:02:00;;;;;;;0.47;0.47;;;;;;;1.68;75.92;102697.38;5021640;28;20025;-76
2024/01/08 08:04:25;;;;;;;0.43;0.43;;;;;;;1.54;76.11;102698.78;5028117;28;20037;-76
2024/01/08 08:06:51;;;;;;;0.93;0.93;;;;;;;1.11;76.97;102705.78;5031560;28;20095;-75
2024/01/08 08:09:16;;;;;;;0.68;0.60;;;;;;;1.39;76.53;102716.34;5040724;28;20037;-75
2024/01/08 08:11:41;;;;;;;2.75;0.75;;;;;;;1.30;76.92;102715.91;5020474;28;20040;-75
2024/01/08 08:14:07;;;;;;;1.83;1.42;;;;;;;1.25;77.29;102723.81;5041156;28;20538;-76
2024/01/08 08:16:32;;;;;;;0.93;0.93;;;;;;;1.39;76.59;102721.66;5044055;28;20040;-75
2024/01/08 08:18:58;;;;;;;0.63;0.47;;;;;;;1.30;76.75;102725.72;5053656;28;20062;-76
2024/01/08 08:21:24;;;;;;;0.75;0.52;;;;;;;1.15;76.35;102733.44;5038534;28;20040;-75
2024/01/08 08:23:50;;;;;;;2.70;1.15;;;;;;;1.07;76.97;102734.66;5043837;28;20032;-76
2024/01/08 08:26:15;;;;;;;1.13;1.08;;;;;;;1.18;76.55;102743.59;5043470;28;20414;-76
2024/01/08 08:28:41;;;;;;;1.08;1.08;;;;;;;1.37;77.14;102751.09;5042999;28;20036;-76
2024/01/08 08:31:07;;;;;;;0.40;0.40;;;;;;;1.35;76.28;102747.06;5029478;28;20049;-76
2024/01/08 08:33:32;;;;;;;0.57;0.57;;;;;;;1.45;75.68;102758.63;5042840;28;20041;-76
2024/01/08 08:35:57;;;;;;;0.63;0.63;;;;;;;1.49;76.12;102759.75;5039678;28;20125;-75
2024/01/08 08:38:23;;;;;;;0.38;0.38;;;;;;;1.38;76.21;102768.59;5029118;28;20033;-76
2024/01/08 08:40:48;;;;;;;0.52;0.52;;;;;;;1.41;75.85;102764.66;5030671;28;20039;-76
2024/01/08 08:43:14;;;;;;;1.75;0.55;;;;;;;1.25;75.28;102762.78;5029191;28;20045;-77
2024/01/08 08:45:39;;;;;;;2.45;0.75;;;;;;;1.30;75.24;102763.69;5032667;28;20053;-77
2024/01/08 08:48:09;;;;;;;0.73;0.73;;;;;;;1.48;75.26;102774.06;5028105;28;20499;-76
2024/01/08 08:50:34;;;;;;;0.68;0.68;;;;;;;1.62;73.63;102782.53;5014983;28;20033;-77
2024/01/08 08:53:00;;;;;;;0.57;0.57;;;;;;;1.70;72.66;102772.28;5045769;28;20129;-76
2024/01/08 08:55:25;;;;;;;0.50;0.50;;;;;;;1.62;73.63;102775.38;5015843;28;20033;-77
2024/01/08 08:57:52;;;;;;;3.05;0.85;;;;;;;1.91;72.93;102780.56;5032003;28;20490;-76
2024/01/08 09:00:18;;;;;;;0.70;0.70;;;;;;;1.60;73.00;102788.06;5021003;28;20113;-77
2024/01/08 09:02:43;;;;;;;1.95;0.90;;;;;;;1.67;72.68;102788.72;5028608;28;20037;-77
2024/01/08 09:05:09;;;;;;;0.55;0.50;;;;;;;1.95;72.18;102794.97;5029660;28;20124;-77
2024/01/08 09:07:34;;;;;;;0.65;0.65;;;;;;;1.68;71.95;102798.25;5033503;28;20038;-77
2024/01/08 09:10:01;;;;;;;0.85;0.77;;;;;;;1.80;71.94;102814.13;5033620;28;20037;-77
2024/01/08 09:12:26;;;;;;;1.15;0.93;;;;;;;1.79;71.88;102818.63;5025649;28;20487;-78
2024/01/08 09:14:52;;;;;;;1.15;0.93;;;;;;;1.69;72.19;102815.00;5031253;28;20026;-75
2024/01/08 09:17:18;;;;;;;0.30;0.30;;;;;;;1.83;71.66;102817.09;5027347;28;20051;-77
2024/01/08 09:19:43;;;;;;;0.40;0.40;;;;;;;1.72;72.74;102817.97;5027305;28;20094;-76
2024/01/08 09:22:09;;;;;;;0.43;0.43;;;;;;;1.69;72.28;102823.78;5030274;28;20394;-78
2024/01/08 09:24:35;;;;;;;0.68;0.63;;;;;;;1.94;72.40;102820.69;5033443;28;20556;-77
2024/01/08 09:27:01;;;;;;;1.55;1.00;;;;;;;1.94;71.74;102830.50;5028971;28;20029;-77
2024/01/08 09:29:26;;;;;;;1.15;1.15;;;;;;;2.04;70.03;102828.84;5032646;28;20033;-77
2024/01/08 09:31:53;;;;;;;0.40;0.40;;;;;;;1.97;70.35;102822.06;5032985;28;20166;-77
2024/01/08 09:34:18;;;;;;;0.40;0.40;;;;;;;2.13;70.32;102829.22;5018092;28;20038;-77
2024/01/08 09:36:44;;;;;;;1.13;0.80;;;;;;;2.32;68.99;102833.22;5026092;28;20040;-77
2024/01/08 09:39:11;;;;;;;0.75;0.70;;;;;;;2.30;69.57;102836.13;5032297;28;20135;-78
2024/01/08 09:41:37;;;;;;;1.48;0.50;;;;;;;2.33;69.64;102834.81;5031767;28;20033;-77
2024/01/08 09:44:05;;;;;;;0.80;0.80;;;;;;;2.33;69.38;102845.44;5023746;28;20037;-77
2024/01/08 09:46:35;;;;;;;0.40;0.40;;;;;;;2.56;68.81;102840.72;5030757;28;20029;-77
2024/01/08 09:49:03;;;;;;;0.38;0.38;;;;;;;2.49;67.67;102831.31;5032581;28;20045;-76
2024/01/08 09:51:29;;;;;;;0.47;0.47;;;;;;;2.50;68.46;102836.38;5030032;28;20160;-77
2024/01/08 09:53:58;;;;;;;1.67;0.93;;;;;;;2.36;68.48;102835.13;5027953;28;20617;-77
2024/01/08 09:56:26;;;;;;;0.30;0.30;;;;;;;2.54;68.79;102839.34;5029145;28;20096;-78
2024/01/08 09:58:52;;;;;;;0.80;0.77;;;;;;;2.40;69.30;102836.25;5026718;28;20044;-76
2024/01/08 10:01:19;;;;;;;0.35;0.30;;;;;;;2.19;68.80;102842.31;5026147;28;20038;-76
2024/01/08 10:03:46;;;;;;;0.20;0.20;;;;;;;2.50;68.99;102844.34;5048041;28;20507;-77
2024/01/08 10:06:12;;;;;;;1.08;1.00;;;;;;;2.65;67.82;102843.75;5034189;28;20036;-76
2024/01/08 10:08:38;;;;;;;0.40;0.40;;;;;;;2.64;68.45;102836.81;5030130;28;20049;-76
2024/01/08 10:11:05;;;;;;;1.17;0.90;;;;;;;2.63;68.63;102836.00;5032990;28;20044;-77
2024/01/08 10:13:30;;;;;;;0.47;0.47;;;;;;;2.46;68.35;102835.25;5031709;28;20121;-77
2024/01/08 10:15:56;;;;;;;1.15;0.88;;;;;;;2.48;68.40;102833.16;5034201;28;20100;-77
2024/01/08 10:18:24;;;;;;;0.30;0.30;;;;;;;2.60;67.46;102843.69;5035942;28;20040;-76
2024/01/08 10:21:13;;;;;;;0.75;0.75;;;;;;;2.43;67.64;102840.28;5026531;28;20042;-76
2024/01/08 10:23:40;;;;;;;0.45;0.45;;;;;;;2.69;68.44;102836.91;5027771;28;20227;-77
2024/01/08 10:26:10;;;;;;;0.90;0.60;;;;;;;2.67;68.76;102841.66;5033896;28;20033;-76
2024/01/08 10:28:37;;;;;;;3.33;2.05;;;;;;;2.50;67.26;102839.03;5033061;28;20033;-76
2024/01/08 10:31:05;;;;;;;0.93;0.80;;;;;;;2.60;67.27;102835.69;5015424;28;20033;-77
2024/01/08 10:33:31;;;;;;;0.40;0.40;;;;;;;2.70;67.47;102841.16;5035621;28;20565;-77
2024/01/08 10:35:57;;;;;;;0.63;0.63;;;;;;;2.53;67.22;102835.91;5034498;28;20402;-76
2024/01/08 10:38:23;;;;;;;0.32;0.32;;;;;;;2.39;68.44;102833.84;5019171;28;20029;-76
2024/01/08 10:40:49;;;;;;;0.28;0.28;;;;;;;2.44;67.31;102836.56;5025726;28;20034;-76
2024/01/08 10:43:14;;;;;;;0.95;0.47;;;;;;;2.49;68.67;102834.78;5032013;28;20063;-77
2024/01/08 10:45:40;;;;;;;0.30;0.30;;;;;;;2.36;68.57;102835.13;5029576;28;20049;-76
2024/01/08 10:48:14;;;;;;;0.52;0.52;;;;;;;2.52;68.84;102833.47;5034391;28;20140;-78
2024/01/08 10:50:44;;;;;;;0.43;0.43;;;;;;;2.57;68.82;102842.34;5036511;28;20033;-76
2024/01/08 10:53:17;;;;;;;0.38;0.38;;;;;;;2.16;68.28;102834.03;5032794;28;20029;-77
2024/01/08 10:55:43;;;;;;;1.98;0.38;;;;;;;2.27;70.11;102828.63;5035577;28;20040;-76
2024/01/08 10:58:09;;;;;;;0.50;0.50;;;;;;;2.12;69.94;102831.06;5047057;28;20565;-76
2024/01/08 11:00:35;;;;;;;0.40;0.40;;;;;;;2.40;68.43;102835.47;5033462;28;20045;-76
2024/01/08 11:03:02;;;;;;;1.75;1.05;;;;;;;2.60;68.95;102836.50;5033144;28;20041;-76
2024/01/08 11:05:31;;;;;;;0.65;0.52;;;;;;;2.61;68.44;102826.69;5041873;28;20057;-75
2024/01/08 11:07:57;;;;;;;0.30;0.30;;;;;;;2.67;66.61;102823.81;5031428;28;20037;-76
2024/01/08 11:10:23;;;;;;;1.13;0.75;;;;;;;2.52;68.58;102826.31;5032458;28;20164;-76
2024/01/08 11:12:56;;;;;;;1.05;0.82;;;;;;;2.51;68.12;102823.91;5027375;28;20520;-76
2024/01/08 11:15:28;;;;;;;0.55;0.55;;;;;;;2.77;68.93;102825.00;5021749;28;20376;-76
2024/01/08 11:17:56;;;;;;;0.75;0.52;;;;;;;2.35;67.76;102824.75;5029951;28;20040;-76
2024/01/08 11:20:41;;;;;;;0.30;0.30;;;;;;;2.38;68.23;102822.38;5032183;28;20378;-76
2024/01/08 11:23:32;;;;;;;0.20;0.20;;;;;;;2.34;67.59;102823.16;5030909;28;20129;-76
2024/01/08 11:25:58;;;;;;;0.90;0.63;;;;;;;2.49;69.08;102826.00;5030294;28;20040;-76
2024/01/08 11:28:24;;;;;;;0.22;0.22;;;;;;;2.45;68.55;102830.19;5034170;28;20528;-76
2024/01/08 11:31:11;;;;;;;0.30;0.30;;;;;;;2.52;68.32;102822.81;5029352;28;20033;-76